Time;durP1;ratioP1;P1;durP2;ratioP2;P2;SDS_P1;SDS_P2;PMS_P1;PMS_P2;Temp;Humidity;BMP_temperature;BMP_pressure;BME280_temperature;BME280_humidity;BME280_pressure;Samples;Min_cycle;Max_cycle;Signal;HPM_P1;HPM_P2
2021/08/21 00:00:51;;;;;;;;;;;;;;;15.55;89.20;98311.41;1739334;81;20201;-76
2021/08/21 00:03:17;;;;;;;;;;;;;;;15.52;90.79;98307.38;1741763;82;21065;-78
2021/08/21 00:05:43;;;;;;;;;;;;;;;15.56;90.97;98302.69;1739202;81;20241;-78
2021/08/21 00:08:08;;;;;;;;;;;;;;;15.59;90.54;98302.06;1739096;81;20249;-75
2021/08/21 00:10:34;;;;;;;;;;;;;;;15.60;89.23;98299.58;1739258;81;20832;-78
2021/08/21 00:13:00;;;;;;;;;;;;;;;15.53;87.94;98303.53;1739122;82;20214;-78
2021/08/21 00:15:26;;;;;;;;;;;;;;;15.48;88.14;98312.41;1739128;82;21902;-74
2021/08/21 00:17:52;;;;;;;;;;;;;;;15.47;88.50;98314.88;1739055;81;20469;-78
2021/08/21 00:20:18;;;;;;;;;;;;;;;15.45;87.80;98313.80;1718045;82;20209;-78
2021/08/21 00:22:43;;;;;;;;;;;;;;;15.43;88.55;98309.77;1739095;81;20170;-77
2021/08/21 00:25:10;;;;;;;;;;;;;;;15.37;89.23;98310.41;1738972;81;20155;-74
2021/08/21 00:27:36;;;;;;;;;;;;;;;15.32;89.41;98310.53;1739080;82;21051;-74
2021/08/21 00:30:02;;;;;;;;;;;;;;;15.27;90.55;98313.34;1738863;82;20249;-78
2021/08/21 00:32:28;;;;;;;;;;;;;;;15.23;89.48;98315.89;1739131;81;20407;-74
2021/08/21 00:34:54;;;;;;;;;;;;;;;15.23;88.67;98316.45;1738765;82;20182;-74
2021/08/21 00:37:20;;;;;;;;;;;;;;;15.17;89.75;98315.72;1739271;81;20241;-78
2021/08/21 00:39:45;;;;;;;;;;;;;;;15.13;88.98;98317.45;1738882;81;21832;-78
2021/08/21 00:42:11;;;;;;;;;;;;;;;15.09;89.38;98313.70;1739035;81;20165;-74
2021/08/21 00:44:38;;;;;;;;;;;;;;;15.06;89.95;98314.86;1738946;82;20185;-78
2021/08/21 00:47:10;;;;;;;;;;;;;;;14.98;90.41;98312.27;1739055;82;20148;-77
2021/08/21 00:49:37;;;;;;;;;;;;;;;14.99;88.90;98314.45;1738964;81;20171;-75
2021/08/21 00:52:03;;;;;;;;;;;;;;;15.00;90.87;98312.77;1739211;81;21047;-77
2021/08/21 00:54:29;;;;;;;;;;;;;;;14.99;91.88;98311.72;1738927;82;20152;-77
2021/08/21 00:56:56;;;;;;;;;;;;;;;14.97;90.36;98313.39;1739304;81;20190;-78
2021/08/21 00:59:22;;;;;;;;;;;;;;;14.92;88.54;98307.45;1738758;82;20191;-78
2021/08/21 01:01:48;;;;;;;;;;;;;;;14.90;88.65;98306.15;1739198;81;20151;-74
2021/08/21 01:04:14;;;;;;;;;;;;;;;14.87;90.80;98308.93;1746543;82;21107;-78
2021/08/21 01:06:40;;;;;;;;;;;;;;;14.91;91.01;98312.66;1747551;82;20179;-74
2021/08/21 01:09:06;;;;;;;;;;;;;;;14.94;91.21;98307.15;1748583;82;20197;-75
2021/08/21 01:11:32;;;;;;;;;;;;;;;14.98;90.18;98310.91;1749524;81;20505;-74
2021/08/21 01:13:58;;;;;;;;;;;;;;;15.01;91.76;98306.76;1742068;82;20189;-78
2021/08/21 01:16:24;;;;;;;;;;;;;;;15.00;89.83;98307.31;1739284;82;21056;-78
2021/08/21 01:18:50;;;;;;;;;;;;;;;15.00;90.91;98310.05;1738963;82;20165;-78
2021/08/21 01:21:16;;;;;;;;;;;;;;;15.03;90.45;98309.98;1739173;82;20438;-78
2021/08/21 01:23:42;;;;;;;;;;;;;;;15.06;90.77;98310.22;1738966;82;20201;-78
2021/08/21 01:26:10;;;;;;;;;;;;;;;15.05;89.37;98309.16;1739067;82;20794;-78
2021/08/21 01:28:36;;;;;;;;;;;;;;;15.03;91.01;98305.34;1738328;82;21093;-78
2021/08/21 01:31:25;;;;;;;;;;;;;;;15.00;90.75;98303.22;1739112;82;20177;-78
2021/08/21 01:33:48;;;;;;;;;;;;;;;15.04;90.27;98312.97;1737904;82;20450;-78
2021/08/21 01:36:14;;;;;;;;;;;;;;;15.06;91.16;98302.03;1739087;82;20213;-74
2021/08/21 01:38:56;;;;;;;;;;;;;;;15.02;91.39;98305.09;1738873;82;20238;-74
2021/08/21 01:41:22;;;;;;;;;;;;;;;15.05;89.95;98300.97;1718292;82;21037;-78
2021/08/21 01:43:47;;;;;;;;;;;;;;;14.93;90.17;98298.16;1738776;82;20269;-74
2021/08/21 01:46:13;;;;;;;;;;;;;;;14.89;89.61;98302.61;1739179;82;20289;-78
2021/08/21 01:48:39;;;;;;;;;;;;;;;14.83;90.38;98300.27;1738871;82;20742;-78
2021/08/21 01:51:04;;;;;;;;;;;;;;;14.80;89.94;98296.78;1739102;81;20169;-78
2021/08/21 01:53:30;;;;;;;;;;;;;;;14.79;90.14;98298.70;1738869;82;21043;-78
2021/08/21 01:55:56;;;;;;;;;;;;;;;14.80;90.46;98300.32;1739182;82;20191;-78
2021/08/21 01:58:22;;;;;;;;;;;;;;;14.81;91.46;98299.20;1738980;82;20213;-75
2021/08/21 02:00:48;;;;;;;;;;;;;;;14.88;90.93;98301.55;1738890;81;20146;-74
2021/08/21 02:03:14;;;;;;;;;;;;;;;14.92;91.00;98308.01;1738940;82;20426;-74
2021/08/21 02:05:40;;;;;;;;;;;;;;;14.89;90.54;98302.61;1735129;81;22108;-78
2021/08/21 02:08:05;;;;;;;;;;;;;;;14.86;91.61;98300.46;1730861;83;20186;-74
2021/08/21 02:10:31;;;;;;;;;;;;;;;14.93;90.57;98301.44;1730724;83;20217;-78
2021/08/21 02:12:57;;;;;;;;;;;;;;;14.91;90.34;98300.38;1731084;82;20131;-78
2021/08/21 02:15:23;;;;;;;;;;;;;;;14.87;91.44;98295.29;1730850;82;20221;-74
2021/08/21 02:17:48;;;;;;;;;;;;;;;14.85;91.36;98301.58;1730872;83;21087;-78
2021/08/21 02:20:14;;;;;;;;;;;;;;;14.82;91.54;98300.83;1730727;83;20225;-74
2021/08/21 02:22:40;;;;;;;;;;;;;;;14.81;90.59;98298.41;1731036;82;20202;-74
2021/08/21 02:25:07;;;;;;;;;;;;;;;14.78;89.88;98297.62;1730740;82;20694;-78
2021/08/21 02:27:38;;;;;;;;;;;;;;;14.67;90.48;98296.44;1730935;83;20203;-74
2021/08/21 02:30:05;;;;;;;;;;;;;;;14.62;91.12;98295.73;1730669;82;21877;-75
2021/08/21 02:32:30;;;;;;;;;;;;;;;14.61;90.10;98299.02;1730926;83;20156;-74
2021/08/21 02:34:56;;;;;;;;;;;;;;;14.56;89.69;98298.29;1730840;82;20238;-78
2021/08/21 02:37:22;;;;;;;;;;;;;;;14.52;91.00;98304.06;1730971;83;20182;-78
2021/08/21 02:39:48;;;;;;;;;;;;;;;14.50;90.09;98301.64;1730747;82;20150;-78
2021/08/21 02:42:13;;;;;;;;;;;;;;;14.48;90.82;98305.78;1730945;83;21061;-74
2021/08/21 02:44:39;;;;;;;;;;;;;;;14.49;89.72;98305.48;1710089;83;20173;-74
2021/08/21 02:47:05;;;;;;;;;;;;;;;14.48;89.62;98295.69;1731003;83;20158;-78
2021/08/21 02:49:31;;;;;;;;;;;;;;;14.49;89.35;98293.77;1730658;82;20206;-74
2021/08/21 02:51:57;;;;;;;;;;;;;;;14.50;89.62;98294.83;1730908;83;20144;-78
2021/08/21 02:54:22;;;;;;;;;;;;;;;14.50;89.56;98294.02;1730661;82;21017;-78
2021/08/21 02:56:48;;;;;;;;;;;;;;;14.48;89.33;98294.32;1731030;82;20158;-78
2021/08/21 02:59:14;;;;;;;;;;;;;;;14.46;91.56;98297.10;1730662;82;20205;-74
2021/08/21 03:01:40;;;;;;;;;;;;;;;14.47;90.23;98304.17;1730994;83;20214;-78
2021/08/21 03:04:05;;;;;;;;;;;;;;;14.44;90.55;98304.19;1735890;82;20194;-77
2021/08/21 03:06:31;;;;;;;;;;;;;;;14.39;92.64;98315.16;1739001;82;21952;-74
2021/08/21 03:08:57;;;;;;;;;;;;;;;14.39;92.94;98314.61;1738732;81;20272;-74
2021/08/21 03:11:22;;;;;;;;;;;;;;;14.43;92.23;98309.91;1739132;82;20193;-78
2021/08/21 03:13:48;;;;;;;;;;;;;;;14.42;92.03;98307.74;1738988;82;20178;-74
2021/08/21 03:16:14;;;;;;;;;;;;;;;14.43;90.92;98316.17;1738969;82;20248;-78
2021/08/21 03:18:40;;;;;;;;;;;;;;;14.43;91.36;98318.09;1739022;81;21118;-78
2021/08/21 03:21:05;;;;;;;;;;;;;;;14.42;91.73;98318.65;1738945;82;20221;-78
2021/08/21 03:23:31;;;;;;;;;;;;;;;14.45;91.80;98321.36;1739061;81;20962;-77
2021/08/21 03:25:58;;;;;;;;;;;;;;;14.46;91.22;98313.46;1738894;82;20166;-74
2021/08/21 03:28:24;;;;;;;;;;;;;;;14.42;91.36;98323.30;1739048;81;20152;-74
2021/08/21 03:30:50;;;;;;;;;;;;;;;14.37;92.00;98317.39;1738958;82;21201;-74
2021/08/21 03:33:15;;;;;;;;;;;;;;;14.38;91.80;98321.17;1739058;82;20253;-74
2021/08/21 03:35:42;;;;;;;;;;;;;;;14.34;91.99;98316.04;1738919;82;20320;-74
2021/08/21 03:38:08;;;;;;;;;;;;;;;14.30;91.99;98315.03;1739018;81;20132;-74
2021/08/21 03:40:34;;;;;;;;;;;;;;;14.30;92.11;98325.94;1739106;81;20158;-74
2021/08/21 03:43:00;;;;;;;;;;;;;;;14.32;91.24;98324.27;1739155;82;21089;-77
2021/08/21 03:45:25;;;;;;;;;;;;;;;14.29;91.70;98327.59;1739023;81;20186;-78
2021/08/21 03:47:51;;;;;;;;;;;;;;;14.29;91.78;98326.23;1739207;82;20174;-74
2021/08/21 03:50:17;;;;;;;;;;;;;;;14.27;90.76;98331.15;1739164;81;20162;-78
2021/08/21 03:52:43;;;;;;;;;;;;;;;14.19;91.95;98327.76;1739243;81;20276;-73
2021/08/21 03:55:09;;;;;;;;;;;;;;;14.14;91.05;98332.72;1739107;81;21857;-78
2021/08/21 03:57:35;;;;;;;;;;;;;;;14.05;92.32;98338.58;1739043;82;20127;-73
2021/08/21 04:00:03;;;;;;;;;;;;;;;13.99;90.82;98339.74;1739069;82;20144;-78
2021/08/21 04:02:29;;;;;;;;;;;;;;;13.90;90.05;98347.77;1739240;81;20132;-78
2021/08/21 04:04:55;;;;;;;;;;;;;;;13.86;90.87;98345.93;1732034;81;20151;-74
2021/08/21 04:07:20;;;;;;;;;;;;;;;13.81;91.46;98350.33;1731074;83;21033;-78
2021/08/21 04:09:46;;;;;;;;;;;;;;;13.79;91.50;98348.45;1730765;82;20206;-73
2021/08/21 04:12:18;;;;;;;;;;;;;;;13.78;91.32;98358.28;1731038;83;20209;-78
2021/08/21 04:14:40;;;;;;;;;;;;;;;13.80;91.46;98351.44;1729625;82;20136;-74
2021/08/21 04:17:05;;;;;;;;;;;;;;;13.81;92.04;98354.97;1731168;82;20221;-78
2021/08/21 04:19:31;;;;;;;;;;;;;;;13.81;92.04;98364.50;1730729;82;21062;-74
2021/08/21 04:21:57;;;;;;;;;;;;;;;13.81;91.14;98365.31;1730750;82;20185;-78
2021/08/21 04:24:23;;;;;;;;;;;;;;;13.80;91.35;98365.61;1730901;83;20166;-78
2021/08/21 04:26:48;;;;;;;;;;;;;;;13.77;92.34;98368.38;1731201;82;20139;-78
2021/08/21 04:29:14;;;;;;;;;;;;;;;13.80;91.94;98365.05;1730884;83;20211;-78
2021/08/21 04:31:40;;;;;;;;;;;;;;;13.82;92.14;98365.56;1731195;82;21162;-77
2021/08/21 04:34:06;;;;;;;;;;;;;;;13.87;92.63;98363.89;1730846;83;20265;-73
2021/08/21 04:36:31;;;;;;;;;;;;;;;13.94;92.19;98369.24;1730720;83;20324;-78
2021/08/21 04:38:57;;;;;;;;;;;;;;;14.03;91.74;98367.48;1730890;82;20773;-77
2021/08/21 04:41:23;;;;;;;;;;;;;;;14.09;91.56;98373.09;1730855;82;20174;-74
2021/08/21 04:43:48;;;;;;;;;;;;;;;14.15;91.43;98376.57;1730850;82;21179;-74
2021/08/21 04:46:14;;;;;;;;;;;;;;;14.21;91.95;98377.32;1730794;82;20186;-74
2021/08/21 04:48:40;;;;;;;;;;;;;;;14.29;91.69;98382.11;1731013;83;20214;-77
2021/08/21 04:51:06;;;;;;;;;;;;;;;14.42;91.11;98387.36;1730748;82;20162;-74
2021/08/21 04:53:31;;;;;;;;;;;;;;;14.48;90.27;98381.58;1731008;83;20206;-78
2021/08/21 04:55:57;;;;;;;;;;;;;;;14.54;90.50;98390.50;1730823;83;22010;-74
2021/08/21 04:58:23;;;;;;;;;;;;;;;14.66;90.63;98387.55;1730826;83;20827;-77
2021/08/21 05:00:49;;;;;;;;;;;;;;;14.74;90.08;98392.08;1730774;82;20136;-77
2021/08/21 05:03:14;;;;;;;;;;;;;;;14.76;89.90;98390.66;1730787;82;20167;-74
2021/08/21 05:05:40;;;;;;;;;;;;;;;14.83;89.98;98395.19;1730907;82;20167;-77
2021/08/21 05:08:06;;;;;;;;;;;;;;;14.97;89.76;98393.08;1730961;83;21093;-77
2021/08/21 05:10:32;;;;;;;;;;;;;;;15.04;89.48;98387.48;1730854;83;20194;-77
2021/08/21 05:12:57;;;;;;;;;;;;;;;15.14;89.34;98392.77;1730957;83;20273;-77
2021/08/21 05:15:23;;;;;;;;;;;;;;;15.31;89.16;98388.64;1730903;82;20825;-74
2021/08/21 05:17:51;;;;;;;;;;;;;;;15.34;88.82;98394.86;1730705;82;20182;-74
2021/08/21 05:20:18;;;;;;;;;;;;;;;15.45;88.48;98395.72;1730823;82;21221;-74
2021/08/21 05:25:12;;;;;;;;;;;;;;;15.62;87.96;98402.54;1731006;82;20454;-77
2021/08/21 05:27:38;;;;;;;;;;;;;;;15.71;87.94;98404.26;1730951;83;20896;-76
2021/08/21 05:30:05;;;;;;;;;;;;;;;15.78;87.80;98397.03;1730867;83;20162;-78
2021/08/21 05:32:31;;;;;;;;;;;;;;;15.85;87.74;98393.89;1730935;82;21765;-77
2021/08/21 05:34:57;;;;;;;;;;;;;;;15.92;87.51;98398.40;1730741;83;20140;-77
2021/08/21 05:37:23;;;;;;;;;;;;;;;16.08;87.25;98406.53;1731086;83;20206;-74
2021/08/21 05:39:49;;;;;;;;;;;;;;;16.14;86.79;98412.11;1730654;82;20174;-74
2021/08/21 05:42:14;;;;;;;;;;;;;;;16.26;86.70;98414.34;1731103;82;20206;-74
2021/08/21 05:44:40;;;;;;;;;;;;;;;16.39;86.22;98414.05;1730770;82;21833;-77
2021/08/21 05:47:06;;;;;;;;;;;;;;;16.44;85.60;98417.48;1730949;83;20245;-75
2021/08/21 05:49:31;;;;;;;;;;;;;;;16.54;85.34;98417.25;1730832;83;20221;-77
2021/08/21 05:51:57;;;;;;;;;;;;;;;16.73;84.79;98423.14;1730625;83;20150;-77
2021/08/21 05:54:23;;;;;;;;;;;;;;;16.96;84.78;98422.03;1730863;82;20241;-75
2021/08/21 05:56:49;;;;;;;;;;;;;;;17.11;82.93;98423.02;1730693;83;21173;-77
2021/08/21 05:59:14;;;;;;;;;;;;;;;17.23;82.94;98425.74;1730721;82;20194;-77
2021/08/21 06:01:40;;;;;;;;;;;;;;;17.26;83.22;98427.31;1730688;83;20186;-77
2021/08/21 06:04:06;;;;;;;;;;;;;;;17.43;82.40;98427.94;1734430;82;20133;-76
2021/08/21 06:06:35;;;;;;;;;;;;;;;17.66;82.40;98425.95;1749156;82;20189;-77
2021/08/21 06:09:02;;;;;;;;;;;;;;;17.79;80.80;98421.55;1749089;82;21801;-77
2021/08/21 06:11:28;;;;;;;;;;;;;;;17.90;80.20;98424.23;1749071;81;20135;-74
2021/08/21 06:13:54;;;;;;;;;;;;;;;17.96;79.38;98423.77;1739850;82;20237;-77
2021/08/21 06:16:19;;;;;;;;;;;;;;;18.08;79.77;98427.27;1738815;81;20658;-77
2021/08/21 06:18:46;;;;;;;;;;;;;;;18.23;80.08;98426.02;1738746;81;20249;-78
2021/08/21 06:21:12;;;;;;;;;;;;;;;18.25;79.41;98423.19;1738869;82;21837;-74
2021/08/21 06:23:38;;;;;;;;;;;;;;;18.35;79.52;98424.81;1738800;82;20120;-75
2021/08/21 06:26:04;;;;;;;;;;;;;;;18.48;77.62;98425.25;1738949;82;20229;-77
2021/08/21 06:28:30;;;;;;;;;;;;;;;18.51;77.67;98425.16;1739051;82;20130;-75
2021/08/21 06:30:55;;;;;;;;;;;;;;;18.58;77.25;98424.92;1738818;81;20234;-78
2021/08/21 06:33:21;;;;;;;;;;;;;;;18.68;78.48;98422.45;1739037;81;21169;-75
2021/08/21 06:35:47;;;;;;;;;;;;;;;18.72;78.17;98430.86;1738894;81;20217;-75
2021/08/21 06:38:13;;;;;;;;;;;;;;;18.69;79.43;98431.48;1739001;81;20205;-74
2021/08/21 06:40:38;;;;;;;;;;;;;;;18.52;79.40;98423.45;1738947;82;20146;-77
2021/08/21 06:43:04;;;;;;;;;;;;;;;18.51;79.34;98426.53;1738981;82;20159;-77
2021/08/21 06:45:30;;;;;;;;;;;;;;;18.51;79.23;98425.96;1739029;82;21077;-74
2021/08/21 06:47:56;;;;;;;;;;;;;;;18.54;79.36;98423.97;1739076;81;20233;-74
2021/08/21 06:50:21;;;;;;;;;;;;;;;18.70;78.35;98429.79;1739162;82;20319;-78
2021/08/21 06:52:48;;;;;;;;;;;;;;;18.86;78.50;98427.37;1739111;81;20173;-77
2021/08/21 06:55:14;;;;;;;;;;;;;;;18.94;78.87;98428.50;1739199;82;20218;-78
2021/08/21 06:57:40;;;;;;;;;;;;;;;19.04;77.56;98429.53;1739106;82;21037;-77
2021/08/21 07:00:06;;;;;;;;;;;;;;;19.08;77.20;98427.20;1739186;82;20186;-78
2021/08/21 07:02:32;;;;;;;;;;;;;;;19.15;76.81;98432.20;1739101;82;20178;-75
2021/08/21 07:04:58;;;;;;;;;;;;;;;19.19;76.49;98433.15;1743584;82;20154;-75
2021/08/21 07:07:23;;;;;;;;;;;;;;;19.20;76.41;98433.95;1747730;82;20258;-77
2021/08/21 07:09:49;;;;;;;;;;;;;;;19.23;75.62;98430.55;1747416;82;21070;-77
2021/08/21 07:12:15;;;;;;;;;;;;;;;19.25;75.89;98441.47;1743359;82;20284;-75
2021/08/21 07:14:41;;;;;;;;;;;;;;;19.33;75.29;98443.39;1738965;82;20181;-74
2021/08/21 07:17:08;;;;;;;;;;;;;;;19.41;75.17;98438.44;1738904;82;20185;-77
2021/08/21 07:19:34;;;;;;;;;;;;;;;19.52;76.12;98438.09;1739025;81;20182;-78
2021/08/21 07:22:00;;;;;;;;;;;;;;;19.71;76.37;98434.40;1738966;81;20981;-76
2021/08/21 07:24:26;;;;;;;;;;;;;;;19.86;74.34;98431.68;1738826;82;20264;-75
2021/08/21 07:26:51;;;;;;;;;;;;;;;19.95;73.81;98436.00;1738998;82;20655;-77
2021/08/21 07:29:17;;;;;;;;;;;;;;;20.71;72.01;98437.02;1738999;82;20891;-78
2021/08/21 07:31:43;;;;;;;;;;;;;;;21.26;71.37;98434.48;1738856;81;20154;-75
2021/08/21 07:34:09;;;;;;;;;;;;;;;21.32;67.91;98435.91;1738911;82;21039;-75
2021/08/21 07:36:34;;;;;;;;;;;;;;;21.50;66.48;98437.33;1739041;81;20236;-78
2021/08/21 07:39:00;;;;;;;;;;;;;;;22.06;65.06;98434.88;1739038;82;20268;-75
2021/08/21 07:41:26;;;;;;;;;;;;;;;22.08;60.42;98442.84;1739083;82;20186;-75
2021/08/21 07:43:52;;;;;;;;;;;;;;;21.84;59.83;98441.64;1739095;82;20213;-75
2021/08/21 07:46:17;;;;;;;;;;;;;;;22.44;63.87;98439.23;1739039;82;21950;-75
2021/08/21 07:48:43;;;;;;;;;;;;;;;22.81;60.48;98444.89;1738943;81;20280;-78
2021/08/21 07:51:09;;;;;;;;;;;;;;;22.96;59.92;98447.53;1738959;82;20201;-78
2021/08/21 07:53:34;;;;;;;;;;;;;;;23.55;58.86;98452.31;1739125;82;20226;-78
2021/08/21 07:56:06;;;;;;;;;;;;;;;23.72;56.16;98447.06;1739063;81;20135;-78
2021/08/21 07:58:28;;;;;;;;;;;;;;;24.34;57.02;98452.36;1738629;82;22019;-78
2021/08/21 08:00:54;;;;;;;;;;;;;;;24.46;54.26;98450.88;1739037;81;20238;-75
2021/08/21 08:03:20;;;;;;;;;;;;;;;24.41;53.82;98456.68;1739045;82;20155;-78
2021/08/21 08:05:45;;;;;;;;;;;;;;;24.22;53.81;98460.75;1735832;81;20151;-75
2021/08/21 08:08:12;;;;;;;;;;;;;;;24.76;53.42;98449.75;1730916;83;20158;-75
2021/08/21 08:10:37;;;;;;;;;;;;;;;24.25;54.21;98453.69;1730982;83;21747;-78
2021/08/21 08:13:04;;;;;;;;;;;;;;;24.08;55.60;98458.44;1730832;82;20233;-78
2021/08/21 08:15:29;;;;;;;;;;;;;;;23.90;54.53;98455.81;1730695;83;20482;-77
2021/08/21 08:17:55;;;;;;;;;;;;;;;23.70;55.78;98463.22;1730894;82;20584;-78
2021/08/21 08:20:21;;;;;;;;;;;;;;;23.09;56.26;98460.73;1731113;83;20178;-75
2021/08/21 08:22:47;;;;;;;;;;;;;;;22.80;56.85;98461.23;1730952;83;21161;-75
2021/08/21 08:25:12;;;;;;;;;;;;;;;22.51;59.49;98464.31;1731471;83;20245;-77
2021/08/21 08:27:38;;;;;;;;;;;;;;;22.18;59.51;98463.87;1730652;82;20201;-75
2021/08/21 08:30:04;;;;;;;;;;;;;;;21.96;60.88;98471.17;1731075;83;20193;-76
2021/08/21 08:32:30;;;;;;;;;;;;;;;22.03;60.54;98467.28;1730809;83;20144;-78
2021/08/21 08:34:56;;;;;;;;;;;;;;;23.05;57.30;98463.96;1731082;83;21665;-76
2021/08/21 08:37:22;;;;;;;;;;;;;;;23.26;58.22;98466.54;1730783;83;20242;-78
2021/08/21 08:39:47;;;;;;;;;;;;;;;23.47;56.91;98469.87;1736458;82;20249;-75
2021/08/21 08:42:14;;;;;;;;;;;;;;;24.31;55.74;98469.67;1736610;81;20147;-78
2021/08/21 08:44:46;;;;;;;;;;;;;;;25.06;51.39;98462.28;1735867;81;20156;-78
2021/08/21 08:47:14;;;;;;;;;;;;;;;26.14;50.34;98468.86;1730817;83;21757;-78
2021/08/21 08:49:40;;;;;;;;;;;;;;;25.87;49.94;98472.17;1730514;82;20364;-75
2021/08/21 08:52:07;;;;;;;;;;;;;;;25.74;51.16;98469.97;1730833;83;20694;-78
2021/08/21 08:54:33;;;;;;;;;;;;;;;26.35;47.44;98469.00;1730824;83;20156;-79
2021/08/21 08:56:59;;;;;;;;;;;;;;;26.53;49.63;98465.92;1730804;83;20170;-75
2021/08/21 08:59:25;;;;;;;;;;;;;;;26.12;48.11;98466.24;1730867;82;21721;-78
2021/08/21 09:01:51;;;;;;;;;;;;;;;25.38;49.58;98468.45;1730745;82;20174;-75
2021/08/21 09:04:25;;;;;;;;;;;;;;;24.96;50.81;98467.21;1730730;82;20145;-76
2021/08/21 09:06:52;;;;;;;;;;;;;;;25.67;51.56;98464.25;1730797;82;20136;-75
2021/08/21 09:09:18;;;;;;;;;;;;;;;25.71;47.24;98472.07;1731179;83;20120;-75
2021/08/21 09:11:45;;;;;;;;;;;;;;;26.52;46.20;98471.86;1730740;82;21168;-75
2021/08/21 09:14:20;;;;;;;;;;;;;;;28.06;45.65;98476.12;1730750;83;20188;-76
2021/08/21 09:16:46;;;;;;;;;;;;;;;28.99;43.55;98471.23;1730806;83;20198;-76
2021/08/21 09:19:13;;;;;;;;;;;;;;;28.88;46.95;98468.92;1730807;83;20156;-76
2021/08/21 09:21:39;;;;;;;;;;;;;;;28.34;42.73;98472.78;1710205;83;20144;-78
2021/08/21 09:24:22;;;;;;;;;;;;;;;28.98;40.92;98465.45;1710250;83;20586;-78
2021/08/21 09:26:48;;;;;;;;;;;;;;;28.25;40.81;98483.43;1730849;82;20140;-79
2021/08/21 09:29:27;;;;;;;;;;;;;;;28.31;43.43;98479.73;1730828;83;20233;-76
2021/08/21 09:31:59;;;;;;;;;;;;;;;27.52;45.91;98485.91;1730876;82;20199;-76
2021/08/21 09:34:25;;;;;;;;;;;;;;;26.47;45.99;98484.09;1728452;82;20424;-75
2021/08/21 09:36:52;;;;;;;;;;;;;;;25.23;48.31;98482.63;1730842;82;21012;-78
2021/08/21 09:39:18;;;;;;;;;;;;;;;26.56;45.00;98483.23;1709857;83;20156;-78
2021/08/21 09:41:59;;;;;;;;;;;;;;;27.33;44.09;98476.33;1710444;83;20249;-79
2021/08/21 09:44:34;;;;;;;;;;;;;;;28.91;40.78;98472.38;1730835;82;20419;-76
2021/08/21 09:47:20;;;;;;;;;;;;;;;29.58;38.01;98475.26;1730158;83;20104;-79
2021/08/21 09:49:45;;;;;;;;;;;;;;;30.65;38.26;98466.91;1730716;82;21288;-79
2021/08/21 09:52:14;;;;;;;;;;;;;;;30.83;34.67;98471.89;1730686;82;20174;-79
2021/08/21 09:54:42;;;;;;;;;;;;;;;30.40;34.24;98467.74;1731151;82;20087;-76
2021/08/21 09:57:09;;;;;;;;;;;;;;;29.55;37.44;98463.47;1710073;83;20609;-78
2021/08/21 09:59:40;;;;;;;;;;;;;;;28.50;41.46;98465.53;1709930;83;20144;-76
2021/08/21 10:02:08;;;;;;;;;;;;;;;27.68;42.59;98467.59;1730625;82;21057;-78
2021/08/21 10:04:34;;;;;;;;;;;;;;;27.52;42.99;98460.06;1729904;82;20104;-79
2021/08/21 10:07:04;;;;;;;;;;;;;;;26.70;43.31;98464.58;1734363;82;20136;-75
2021/08/21 10:09:29;;;;;;;;;;;;;;;26.32;44.84;98470.55;1731251;82;20909;-75
2021/08/21 10:11:56;;;;;;;;;;;;;;;26.18;45.92;98463.38;1730448;83;20108;-78
2021/08/21 10:14:21;;;;;;;;;;;;;;;25.70;44.80;98464.89;1730682;83;21076;-79
2021/08/21 10:16:47;;;;;;;;;;;;;;;25.47;47.13;98464.30;1731242;82;20161;-75
2021/08/21 10:19:13;;;;;;;;;;;;;;;24.84;46.97;98460.98;1730777;83;20415;-75
2021/08/21 10:21:39;;;;;;;;;;;;;;;24.67;48.71;98467.16;1731117;82;20760;-78
2021/08/21 10:24:05;;;;;;;;;;;;;;;24.57;49.22;98464.96;1731268;82;20266;-78
2021/08/21 10:26:35;;;;;;;;;;;;;;;24.71;49.98;98460.33;1731093;82;21834;-78
2021/08/21 10:29:01;;;;;;;;;;;;;;;24.37;49.61;98465.50;1731637;82;20156;-75
2021/08/21 10:31:47;;;;;;;;;;;;;;;24.05;50.29;98460.55;1731085;83;20185;-78
2021/08/21 10:34:14;;;;;;;;;;;;;;;23.91;49.38;98462.36;1731107;82;20164;-78
2021/08/21 10:36:46;;;;;;;;;;;;;;;23.70;49.50;98465.98;1731249;82;20100;-75
2021/08/21 10:39:23;;;;;;;;;;;;;;;23.62;49.09;98462.80;1730871;83;21325;-78
2021/08/21 10:41:54;;;;;;;;;;;;;;;23.78;49.83;98458.67;1731138;82;20164;-75
2021/08/21 10:44:41;;;;;;;;;;;;;;;23.86;49.91;98457.70;1731232;82;20171;-78
2021/08/21 10:47:08;;;;;;;;;;;;;;;23.83;50.44;98457.00;1731032;82;20152;-78
2021/08/21 10:49:44;;;;;;;;;;;;;;;23.88;50.89;98449.25;1731099;82;20136;-75
2021/08/21 10:52:47;;;;;;;;;;;;;;;23.61;50.33;98447.38;1731086;82;21066;-78
2021/08/21 10:55:22;;;;;;;;;;;;;;;23.45;51.04;98447.89;1731327;82;20084;-78
2021/08/21 10:58:02;;;;;;;;;;;;;;;23.55;51.74;98451.52;1731242;82;20416;-78
2021/08/21 11:00:42;;;;;;;;;;;;;;;23.36;49.87;98461.30;1730499;82;20140;-78
2021/08/21 11:03:09;;;;;;;;;;;;;;;23.51;50.62;98455.58;1731001;83;20132;-78
2021/08/21 11:05:58;;;;;;;;;;;;;;;23.45;50.27;98450.66;1731014;82;20982;-75
2021/08/21 11:08:29;;;;;;;;;;;;;;;23.64;49.60;98454.36;1730881;82;20132;-75
2021/08/21 11:11:16;;;;;;;;;;;;;;;23.23;48.74;98450.64;1731205;83;20387;-78
2021/08/21 11:14:14;;;;;;;;;;;;;;;23.34;49.96;98452.56;1731047;82;20125;-75
2021/08/21 11:16:54;;;;;;;;;;;;;;;23.22;50.18;98448.45;1731088;82;20423;-78
2021/08/21 11:19:39;;;;;;;;;;;;;;;23.27;51.18;98446.03;1730989;82;21117;-78
2021/08/21 11:22:13;;;;;;;;;;;;;;;23.08;50.64;98450.84;1731010;82;20092;-75
2021/08/21 11:24:42;;;;;;;;;;;;;;;23.18;50.34;98444.00;1730958;83;20140;-75
2021/08/21 11:27:28;;;;;;;;;;;;;;;23.02;50.74;98443.95;1727927;83;20674;-76
2021/08/21 11:30:09;;;;;;;;;;;;;;;23.08;50.52;98439.78;1731039;82;20092;-78
2021/08/21 11:32:47;;;;;;;;;;;;;;;23.02;50.36;98438.42;1730981;82;21829;-75
2021/08/21 11:35:17;;;;;;;;;;;;;;;23.04;50.57;98439.66;1731088;82;20407;-78
2021/08/21 11:37:48;;;;;;;;;;;;;;;23.15;51.81;98433.05;1730857;83;20128;-78
2021/08/21 11:40:16;;;;;;;;;;;;;;;23.33;51.39;98439.90;1731139;83;20132;-78
2021/08/21 11:42:53;;;;;;;;;;;;;;;23.28;50.79;98440.72;1736711;82;20176;-75
2021/08/21 11:45:19;;;;;;;;;;;;;;;23.01;50.63;98436.81;1736902;81;21744;-78
2021/08/21 11:47:44;;;;;;;;;;;;;;;23.05;50.28;98440.47;1736530;81;20182;-78
2021/08/21 11:50:24;;;;;;;;;;;;;;;23.22;50.79;98438.78;1732015;81;20197;-75
2021/08/21 11:52:50;;;;;;;;;;;;;;;23.35;50.46;98440.92;1730841;83;20096;-78
2021/08/21 11:55:16;;;;;;;;;;;;;;;23.51;50.89;98435.42;1731177;83;20167;-76
2021/08/21 11:57:45;;;;;;;;;;;;;;;23.45;50.79;98440.40;1730818;83;21033;-75
2021/08/21 12:00:13;;;;;;;;;;;;;;;23.57;51.69;98433.98;1730933;82;20176;-78
2021/08/21 12:02:46;;;;;;;;;;;;;;;23.43;50.23;98433.05;1711749;82;20430;-75
2021/08/21 12:05:12;;;;;;;;;;;;;;;23.47;50.16;98440.04;1732811;82;20176;-76
2021/08/21 12:07:38;;;;;;;;;;;;;;;23.28;50.20;98433.81;1731169;82;20132;-75
2021/08/21 12:10:05;;;;;;;;;;;;;;;23.10;49.88;98434.70;1731068;82;21143;-75
2021/08/21 12:12:34;;;;;;;;;;;;;;;23.14;50.42;98434.21;1730906;82;20412;-76
2021/08/21 12:15:00;;;;;;;;;;;;;;;23.03;49.87;98432.54;1731092;82;20179;-76
2021/08/21 12:17:27;;;;;;;;;;;;;;;23.15;49.45;98428.91;1710436;82;20449;-78
2021/08/21 12:19:53;;;;;;;;;;;;;;;22.96;48.92;98426.00;1730772;83;20156;-75
2021/08/21 12:22:18;;;;;;;;;;;;;;;23.01;49.54;98428.53;1730864;82;21017;-75
2021/08/21 12:24:54;;;;;;;;;;;;;;;22.88;50.23;98423.61;1730813;82;20166;-75
2021/08/21 12:27:27;;;;;;;;;;;;;;;22.98;49.73;98432.78;1730969;83;20137;-76
2021/08/21 12:30:17;;;;;;;;;;;;;;;22.96;48.50;98426.00;1730937;82;20438;-75
2021/08/21 12:32:43;;;;;;;;;;;;;;;22.93;49.85;98425.33;1731013;82;20175;-78
2021/08/21 12:35:16;;;;;;;;;;;;;;;22.89;50.83;98429.36;1731141;82;21171;-78
2021/08/21 12:37:42;;;;;;;;;;;;;;;23.01;49.84;98423.00;1730593;82;20289;-75
2021/08/21 12:40:13;;;;;;;;;;;;;;;23.05;49.30;98424.69;1731021;83;20200;-79
2021/08/21 12:42:39;;;;;;;;;;;;;;;23.00;47.57;98420.81;1730824;83;20618;-75
2021/08/21 12:45:22;;;;;;;;;;;;;;;22.97;47.79;98419.31;1731567;82;20191;-76
2021/08/21 12:47:48;;;;;;;;;;;;;;;22.97;46.02;98414.59;1731097;82;21041;-78
2021/08/21 12:50:14;;;;;;;;;;;;;;;23.18;47.06;98424.07;1730571;83;20223;-78
2021/08/21 12:52:42;;;;;;;;;;;;;;;23.39;47.98;98425.22;1710329;83;20169;-76